createdAt,value
2019-01-27T00:00:11.871Z,97053.55
2019-01-27T00:02:39.804Z,97034.30
2019-01-27T00:05:07.606Z,97034.30
2019-01-27T00:08:51.828Z,97029.30
2019-01-27T00:11:20.729Z,97002.55
2019-01-27T00:14:08.833Z,97002.55
2019-01-27T00:16:36.787Z,97014.67
2019-01-27T00:19:04.680Z,97010.46
2019-01-27T00:21:33.295Z,97002.69
2019-01-27T00:24:01.929Z,96982.30
2019-01-27T00:26:30.093Z,96981.81
2019-01-27T00:28:58.705Z,96962.06
2019-01-27T00:31:26.735Z,96962.06
2019-01-27T00:33:54.865Z,96968.47
2019-01-27T00:36:22.826Z,96955.98
2019-01-27T00:38:51.394Z,96955.98
2019-01-27T00:41:19.622Z,96952.77
2019-01-27T00:43:48.415Z,96952.77
2019-01-27T00:46:16.880Z,96942.50
2019-01-27T00:48:44.839Z,96939.30
2019-01-27T00:51:12.877Z,96914.32
2019-01-27T00:53:40.842Z,96910.55
2019-01-27T00:56:08.860Z,96910.55
2019-01-27T00:58:36.857Z,96901.11
2019-01-27T01:01:04.836Z,96901.11
2019-01-27T01:03:32.835Z,96899.63
2019-01-27T01:06:02.864Z,96901.69
2019-01-27T01:08:31.657Z,96897.11
2019-01-27T01:11:00.799Z,96897.11
2019-01-27T01:13:29.400Z,96891.87
2019-01-27T01:15:57.876Z,96887.95
2019-01-27T01:18:26.820Z,96866.80
2019-01-27T01:20:54.883Z,96866.80
2019-01-27T01:23:23.429Z,96869.00
2019-01-27T01:25:52.821Z,96869.00
2019-01-27T01:28:21.277Z,96845.87
2019-01-27T01:30:50.937Z,96841.23
2019-01-27T01:33:19.298Z,96842.00
2019-01-27T01:35:47.864Z,96842.00
2019-01-27T01:38:15.969Z,96836.36
2019-01-27T01:40:44.793Z,96823.72
2019-01-27T01:43:15.909Z,96823.72
2019-01-27T01:45:44.388Z,96806.69
2019-01-27T01:48:12.789Z,96806.69
2019-01-27T01:50:40.850Z,96821.05
2019-01-27T01:53:09.806Z,96803.00
2019-01-27T01:55:37.753Z,96794.86
2019-01-27T01:58:05.778Z,96793.44
2019-01-27T02:00:34.763Z,96788.34
2019-01-27T02:03:02.800Z,96785.75
2019-01-27T02:05:30.865Z,96783.08
2019-01-27T02:07:59.789Z,96765.34
2019-01-27T02:10:27.888Z,96765.34
2019-01-27T02:12:55.752Z,96745.42
2019-01-27T02:16:08.797Z,96745.42
2019-01-27T02:18:37.850Z,96756.09
2019-01-27T02:21:07.398Z,96746.45
2019-01-27T02:23:54.780Z,96738.99
2019-01-27T02:26:23.429Z,96731.08
2019-01-27T02:28:51.842Z,96733.03
2019-01-27T02:31:19.816Z,96731.53
2019-01-27T02:33:47.839Z,96719.53
2019-01-27T02:36:15.804Z,96721.74
2019-01-27T02:38:44.786Z,96717.66
2019-01-27T02:41:12.812Z,96714.50
2019-01-27T02:43:40.807Z,96708.32
2019-01-27T02:46:08.826Z,96712.09
2019-01-27T02:48:36.886Z,96707.39
2019-01-27T02:51:04.897Z,96700.23
2019-01-27T02:53:33.296Z,96696.23
2019-01-27T02:56:01.837Z,96696.23
2019-01-27T02:58:29.838Z,96692.23
2019-01-27T03:00:58.568Z,96684.24
2019-01-27T03:03:26.899Z,96678.91
2019-01-27T03:06:23.753Z,96652.11
2019-01-27T03:08:54.976Z,96652.11
2019-01-27T03:11:22.872Z,96633.28
2019-01-27T03:13:51.388Z,96636.66
2019-01-27T03:16:19.881Z,96636.66
2019-01-27T03:18:48.160Z,96630.84
2019-01-27T03:21:16.910Z,96625.05
2019-01-27T03:23:45.398Z,96624.17
2019-01-27T03:26:13.810Z,96624.17
2019-01-27T03:28:42.367Z,96625.51
2019-01-27T03:31:10.830Z,96620.48
2019-01-27T03:35:17.804Z,96606.47
2019-01-27T03:37:45.810Z,96606.08
2019-01-27T03:40:14.839Z,96598.00
2019-01-27T03:42:43.317Z,96600.44
2019-01-27T03:45:13.846Z,96596.89
2019-01-27T03:47:41.896Z,96576.11
2019-01-27T03:52:29.629Z,96579.73
2019-01-27T03:54:58.758Z,96564.27
2019-01-27T03:57:27.825Z,96579.65
2019-01-27T03:59:58.359Z,96545.83
2019-01-27T04:02:26.860Z,96545.83
2019-01-27T04:05:23.830Z,96564.27
2019-01-27T04:07:52.838Z,96537.61
2019-01-27T04:10:20.902Z,96547.24
2019-01-27T04:12:49.018Z,96543.98
2019-01-27T04:15:17.844Z,96524.20
2019-01-27T04:17:45.885Z,96503.76
2019-01-27T04:20:17.349Z,96516.91
2019-01-27T04:22:47.841Z,96516.91
2019-01-27T04:25:17.852Z,96492.94
2019-01-27T04:27:46.408Z,96492.94
2019-01-27T04:30:28.793Z,96489.23
2019-01-27T04:32:57.725Z,96489.23
2019-01-27T04:35:26.337Z,96484.31
2019-01-27T04:37:55.075Z,96483.68
2019-01-27T04:40:24.849Z,96465.66
2019-01-27T04:42:53.132Z,96465.66
2019-01-27T04:45:26.814Z,96463.47
2019-01-27T04:47:57.499Z,96460.92
2019-01-27T04:57:39.346Z,96444.17
2019-01-27T05:00:15.896Z,96443.47
2019-01-27T05:02:52.927Z,96420.05
2019-01-27T05:05:21.615Z,96437.03
2019-01-27T05:07:51.070Z,96437.03
2019-01-27T05:10:20.767Z,96421.61
2019-01-27T05:13:07.903Z,96421.61
2019-01-27T05:15:35.930Z,96414.72
2019-01-27T05:28:31.756Z,96409.27
2019-01-27T05:30:59.813Z,96409.27
2019-01-27T05:33:28.336Z,96402.70
2019-01-27T05:35:58.657Z,96399.09
2019-01-27T05:38:27.911Z,96389.28
2019-01-27T05:40:56.839Z,96378.05
2019-01-27T05:43:26.438Z,96378.05
2019-01-27T05:45:55.784Z,96372.87
2019-01-27T05:48:24.834Z,96372.87
2019-01-27T05:50:53.530Z,96379.45
2019-01-27T05:53:21.872Z,96377.00
2019-01-27T05:55:50.807Z,96355.81
2019-01-27T05:58:19.768Z,96355.81
2019-01-27T06:00:48.839Z,96367.55
2019-01-27T06:03:16.867Z,96368.31
2019-01-27T06:05:44.887Z,96361.20
2019-01-27T06:08:12.888Z,96363.88
2019-01-27T06:10:41.316Z,96346.27
2019-01-27T06:13:13.040Z,96346.27
2019-01-27T06:15:42.346Z,96346.11
2019-01-27T06:18:13.836Z,96346.11
2019-01-27T06:20:43.012Z,96347.41
2019-01-27T06:23:13.395Z,96329.45
2019-01-27T06:25:42.038Z,96329.45
2019-01-27T06:28:11.374Z,96321.72
2019-01-27T06:30:41.651Z,96321.72
2019-01-27T06:33:42.327Z,96332.75
2019-01-27T06:36:11.824Z,96344.97
2019-01-27T06:38:40.819Z,96342.77
2019-01-27T06:41:08.879Z,96337.92
2019-01-27T06:43:36.886Z,96340.33
2019-01-27T06:46:05.722Z,96326.78
2019-01-27T06:48:34.775Z,96326.78
2019-01-27T06:51:02.731Z,96330.56
2019-01-27T06:53:30.766Z,96322.57
2019-01-27T06:55:59.808Z,96310.96
2019-01-27T06:58:47.822Z,96309.24
2019-01-27T07:01:25.815Z,96302.33
2019-01-27T07:04:13.003Z,96306.11
2019-01-27T07:07:01.373Z,96299.98
2019-01-27T07:09:58.872Z,96299.98
2019-01-27T07:12:41.361Z,96275.61
2019-01-27T07:15:30.838Z,96275.61
2019-01-27T07:18:21.395Z,96278.92
2019-01-27T07:28:14.810Z,96269.72
2019-01-27T07:31:06.885Z,96275.69
2019-01-27T07:33:54.739Z,96254.09
2019-01-27T07:36:44.864Z,96254.09
2019-01-27T07:39:38.348Z,96260.34
2019-01-27T07:42:16.817Z,96260.34
2019-01-27T07:44:53.815Z,96269.27
2019-01-27T07:47:51.387Z,96262.83
2019-01-27T07:50:56.813Z,96264.48
2019-01-27T07:53:42.365Z,96260.44
2019-01-27T07:56:41.094Z,96268.63
2019-01-27T07:59:19.365Z,96231.50
2019-01-27T08:01:57.792Z,96231.50
2019-01-27T08:08:35.841Z,96234.70
2019-01-27T08:16:04.100Z,96230.55
2019-01-27T08:18:56.844Z,96232.03
2019-01-27T08:21:30.814Z,96232.03
2019-01-27T08:24:22.820Z,96220.73
2019-01-27T08:27:09.823Z,96231.39
2019-01-27T08:29:57.801Z,96235.09
2019-01-27T08:32:54.047Z,96241.27
2019-01-27T08:35:47.342Z,96241.27
2019-01-27T08:38:33.303Z,96229.02
2019-01-27T08:41:24.866Z,96222.60
2019-01-27T08:47:24.959Z,96190.19
2019-01-27T08:49:53.874Z,96188.63
2019-01-27T08:57:18.871Z,96177.30
2019-01-27T09:02:40.813Z,96176.20
2019-01-27T09:05:34.069Z,96176.20
2019-01-27T09:08:27.861Z,96185.28
2019-01-27T09:11:24.893Z,96182.98
2019-01-27T09:14:12.771Z,96187.81
2019-01-27T09:17:01.794Z,96187.81
2019-01-27T09:19:52.731Z,96189.14
2019-01-27T09:26:03.791Z,96187.16
2019-01-27T09:29:00.776Z,96187.59
2019-01-27T09:31:50.990Z,96193.83
2019-01-27T09:34:38.981Z,96157.33
2019-01-27T09:37:39.817Z,96165.14
2019-01-27T09:40:30.778Z,96165.14
2019-01-27T09:43:09.333Z,96169.50
2019-01-27T09:46:05.368Z,96169.97
2019-01-27T09:48:52.824Z,96170.98
2019-01-27T09:51:43.812Z,96164.09
2019-01-27T09:54:22.594Z,96162.30
2019-01-27T09:57:04.890Z,96151.41
2019-01-27T09:59:56.014Z,96133.04
2019-01-27T10:02:53.843Z,96120.50
2019-01-27T10:05:36.804Z,96120.50
2019-01-27T10:08:30.731Z,96127.19
2019-01-27T10:11:14.741Z,96127.19
2019-01-27T10:14:21.823Z,96133.66
2019-01-27T10:17:08.840Z,96127.67
2019-01-27T10:19:59.792Z,96100.17
2019-01-27T10:22:59.808Z,96100.17
2019-01-27T10:25:50.866Z,96119.89
2019-01-27T10:28:42.277Z,96120.92
2019-01-27T10:31:30.046Z,96120.92
2019-01-27T10:34:14.054Z,96112.33
2019-01-27T10:36:58.294Z,96110.88
2019-01-27T10:53:34.993Z,96098.82
2019-01-27T10:56:14.322Z,96085.83
2019-01-27T10:59:06.850Z,96085.83
2019-01-27T11:01:47.022Z,96081.25
2019-01-27T11:04:25.832Z,96052.13
2019-01-27T11:07:16.151Z,96052.13
2019-01-27T11:10:10.866Z,96061.50
2019-01-27T11:13:09.840Z,96068.39
2019-01-27T11:16:00.872Z,96049.71
2019-01-27T11:18:48.555Z,96035.23
2019-01-27T11:21:34.354Z,96035.23
2019-01-27T11:24:21.055Z,96039.00
2019-01-27T11:27:15.811Z,96040.46
2019-01-27T11:30:11.814Z,96039.34
2019-01-27T11:32:59.357Z,96039.34
2019-01-27T11:35:47.895Z,96036.16
2019-01-27T11:38:38.778Z,96012.77
2019-01-27T11:41:27.088Z,96012.77
2019-01-27T11:44:16.792Z,96019.45
2019-01-27T11:57:17.037Z,95981.22
2019-01-27T11:59:47.790Z,95958.86
2019-01-27T12:02:17.801Z,95958.86
2019-01-27T12:04:47.809Z,95985.19
2019-01-27T12:07:21.304Z,95977.42
2019-01-27T12:09:51.325Z,95984.64
2019-01-27T12:12:23.327Z,95979.42
2019-01-27T12:14:52.830Z,95989.18
2019-01-27T12:17:23.020Z,95966.50
2019-01-27T12:22:43.980Z,95972.09
2019-01-27T12:26:35.369Z,95979.22
2019-01-27T12:29:04.884Z,95968.75
2019-01-27T12:31:34.376Z,95952.53
2019-01-27T12:34:05.107Z,95952.53
2019-01-27T12:36:35.772Z,95959.41
2019-01-27T12:39:09.832Z,95959.41
2019-01-27T12:41:40.292Z,95960.53
2019-01-27T12:44:10.139Z,95954.95
2019-01-27T12:56:18.754Z,95943.19
2019-01-27T12:58:48.690Z,95943.19
2019-01-27T13:01:20.038Z,95951.20
2019-01-27T13:03:50.771Z,95935.64
2019-01-27T13:06:19.956Z,95933.64
2019-01-27T13:08:49.795Z,95929.17
2019-01-27T13:11:19.367Z,95929.17
2019-01-27T13:13:51.796Z,95926.72
2019-01-27T13:16:21.776Z,95928.97
2019-01-27T13:18:52.035Z,95928.52
2019-01-27T13:21:22.125Z,95906.59
2019-01-27T13:23:52.837Z,95914.59
2019-01-27T13:26:24.780Z,95914.59
2019-01-27T13:28:54.590Z,95914.94
2019-01-27T13:31:25.355Z,95911.59
2019-01-27T13:33:58.056Z,95910.05
2019-01-27T13:36:28.032Z,95886.83
2019-01-27T13:38:58.779Z,95887.38
2019-01-27T13:41:29.458Z,95887.38
2019-01-27T13:44:01.774Z,95891.37
2019-01-27T13:46:32.090Z,95908.50
2019-01-27T13:49:02.942Z,95888.92
2019-01-27T13:51:33.404Z,95905.16
2019-01-27T13:54:03.305Z,95905.16
2019-01-27T13:56:33.791Z,95895.03
2019-01-27T13:59:03.809Z,95891.37
2019-01-27T14:01:33.308Z,95890.03
2019-01-27T14:04:06.748Z,95881.36
2019-01-27T14:06:36.789Z,95870.02
2019-01-27T14:09:07.847Z,95875.80
2019-01-27T14:11:37.075Z,95882.92
2019-01-27T14:14:08.805Z,95861.33
2019-01-27T14:16:38.801Z,95861.33
2019-01-27T14:19:08.788Z,95868.45
2019-01-27T14:21:38.350Z,95872.53
2019-01-27T14:24:08.388Z,95871.07
2019-01-27T14:26:42.384Z,95873.41
2019-01-27T14:29:12.725Z,95877.20
2019-01-27T14:31:41.729Z,95877.53
2019-01-27T14:37:30.708Z,95875.12
2019-01-27T14:40:00.456Z,95876.25
2019-01-27T14:42:31.325Z,95873.12
2019-01-27T14:45:01.932Z,95868.67
2019-01-27T14:47:31.387Z,95871.59
2019-01-27T14:50:02.769Z,95871.59
2019-01-27T14:52:32.178Z,95874.02
2019-01-27T14:55:02.346Z,95876.68
2019-01-27T14:57:32.366Z,95874.27
2019-01-27T15:00:02.774Z,95876.93
2019-01-27T15:02:32.975Z,95869.69
2019-01-27T15:05:05.607Z,95859.34
2019-01-27T15:07:35.791Z,95859.34
2019-01-27T15:10:06.779Z,95863.02
2019-01-27T15:12:36.742Z,95860.68
2019-01-27T15:15:07.794Z,95862.93
2019-01-27T15:17:38.310Z,95852.25
2019-01-27T15:20:14.395Z,95857.59
2019-01-27T15:22:44.838Z,95849.11
2019-01-27T15:25:14.797Z,95839.23
2019-01-27T15:27:44.776Z,95839.23
2019-01-27T15:30:19.784Z,95859.36
2019-01-27T15:32:50.848Z,95858.23
2019-01-27T15:35:22.362Z,95846.23
2019-01-27T15:37:52.885Z,95846.23
2019-01-27T15:40:23.842Z,95833.58
2019-01-27T15:42:54.838Z,95841.81
2019-01-27T15:45:25.855Z,95841.81
2019-01-27T15:47:57.824Z,95844.70
2019-01-27T15:50:30.766Z,95844.70
2019-01-27T15:52:59.990Z,95851.16
2019-01-27T15:55:30.023Z,95843.25
2019-01-27T15:58:00.471Z,95823.07
2019-01-27T16:00:31.373Z,95823.07
2019-01-27T16:03:03.373Z,95840.95
2019-01-27T16:05:33.643Z,95845.38
2019-01-27T16:08:03.816Z,95840.95
2019-01-27T16:10:33.812Z,95833.83
2019-01-27T16:13:03.046Z,95833.83
2019-01-27T16:15:35.844Z,95845.62
2019-01-27T16:18:08.811Z,95822.41
2019-01-27T16:20:39.119Z,95826.29
2019-01-27T16:23:27.899Z,95826.29
2019-01-27T16:25:59.871Z,95823.41
2019-01-27T16:28:30.861Z,95840.73
2019-01-27T16:31:17.444Z,95844.74
2019-01-27T16:34:10.054Z,95844.74
2019-01-27T16:36:43.827Z,95828.75
2019-01-27T16:39:14.756Z,95828.75
2019-01-27T16:41:46.962Z,95847.83
2019-01-27T16:44:17.931Z,95831.63
2019-01-27T16:50:47.829Z,95828.95
2019-01-27T16:53:17.674Z,95849.08
2019-01-27T16:55:47.787Z,95849.08
2019-01-27T16:58:19.693Z,95848.08
2019-01-27T17:00:49.069Z,95845.50
2019-01-27T17:03:19.805Z,95822.08
2019-01-27T17:08:56.946Z,95847.41
2019-01-27T17:11:26.850Z,95856.16
2019-01-27T17:15:29.045Z,95856.95
2019-01-27T17:17:58.800Z,95859.41
2019-01-27T17:20:29.881Z,95859.83
2019-01-27T17:22:59.893Z,95857.41
2019-01-27T17:25:29.772Z,95844.08
2019-01-27T17:27:59.767Z,95844.08
2019-01-27T17:30:30.699Z,95868.62
2019-01-27T17:33:00.776Z,95865.62
2019-01-27T17:35:31.695Z,95863.83
2019-01-27T17:38:01.799Z,95867.83
2019-01-27T17:40:31.810Z,95864.95
2019-01-27T17:43:01.732Z,95872.28
2019-01-27T17:45:31.765Z,95873.16
2019-01-27T17:48:02.314Z,95871.41
2019-01-27T17:50:33.779Z,95871.41
2019-01-27T17:53:04.201Z,95872.16
2019-01-27T17:55:40.807Z,95864.08
2019-01-27T17:58:36.814Z,95864.08
2019-01-27T18:01:24.068Z,95892.29
2019-01-27T18:04:10.730Z,95878.19
2019-01-27T18:06:50.807Z,95878.19
2019-01-27T18:09:38.865Z,95885.17
2019-01-27T18:12:27.005Z,95878.95
2019-01-27T18:14:57.685Z,95878.95
2019-01-27T18:17:27.789Z,95871.08
2019-01-27T18:19:59.041Z,95865.08
2019-01-27T18:22:29.619Z,95865.08
2019-01-27T18:25:01.720Z,95870.95
2019-01-27T18:27:32.772Z,95866.62
2019-01-27T18:30:02.704Z,95874.71
2019-01-27T18:32:32.907Z,95886.75
2019-01-27T18:35:03.784Z,95888.05
2019-01-27T18:37:35.886Z,95887.92
2019-01-27T18:40:08.766Z,95887.92
2019-01-27T18:42:38.936Z,95896.27
2019-01-27T18:50:13.811Z,95894.50
2019-01-27T18:52:44.587Z,95894.50
2019-01-27T18:55:33.283Z,95901.63
2019-01-27T18:58:22.776Z,95909.39
2019-01-27T19:01:11.088Z,95909.39
2019-01-27T19:04:03.742Z,95909.96
2019-01-27T19:06:47.917Z,95909.30
2019-01-27T19:09:39.034Z,95924.94
2019-01-27T19:12:33.763Z,95915.84
2019-01-27T19:15:21.365Z,95915.84
2019-01-27T19:18:08.808Z,95925.18
2019-01-27T19:20:56.784Z,95925.18
2019-01-27T19:24:03.053Z,95926.30
2019-01-27T19:27:03.719Z,95931.64
2019-01-27T19:29:51.816Z,95938.64
2019-01-27T19:32:43.809Z,95938.18
2019-01-27T19:35:43.857Z,95944.19
2019-01-27T19:38:26.056Z,95950.95
2019-01-27T19:41:05.701Z,95950.95
2019-01-27T19:43:52.085Z,95956.19
2019-01-27T19:46:33.806Z,95969.19
2019-01-27T19:49:28.805Z,95969.19
2019-01-27T19:52:08.943Z,95967.86
2019-01-27T19:54:55.992Z,95994.08
2019-01-27T19:57:49.888Z,95995.20
2019-01-27T20:00:40.802Z,96004.88
2019-01-27T20:03:27.727Z,96004.88
2019-01-27T20:06:14.773Z,96019.42
2019-01-27T20:09:04.855Z,96023.88
2019-01-27T20:12:01.781Z,96040.77
2019-01-27T20:14:57.059Z,96040.77
2019-01-27T20:17:42.104Z,96070.91
2019-01-27T20:20:41.932Z,96073.91
2019-01-27T20:23:24.845Z,96073.44
2019-01-27T20:26:10.814Z,96073.44
2019-01-27T20:29:05.541Z,96079.67
2019-01-27T20:31:53.767Z,96079.67
2019-01-27T20:34:37.779Z,96089.91
2019-01-27T20:38:38.371Z,96092.81
2019-01-27T20:41:41.954Z,96101.23
2019-01-27T20:44:46.795Z,96107.00
2019-01-27T20:47:37.776Z,96102.99
2019-01-27T20:50:27.759Z,96119.91
2019-01-27T20:53:15.973Z,96121.92
2019-01-27T20:59:22.770Z,96127.69
2019-01-27T21:02:13.812Z,96140.79
2019-01-27T21:07:05.752Z,96155.00
2019-01-27T21:09:46.777Z,96155.00
2019-01-27T21:12:37.373Z,96189.41
2019-01-27T21:15:47.887Z,96189.41
2019-01-27T21:18:27.900Z,96195.31
2019-01-27T21:20:59.817Z,96207.20
2019-01-27T21:23:32.903Z,96216.73
2019-01-27T21:26:03.684Z,96213.98
2019-01-27T21:28:34.671Z,96213.98
2019-01-27T21:31:05.582Z,96241.84
2019-01-27T21:33:36.784Z,96251.23
2019-01-27T21:36:06.773Z,96254.53
2019-01-27T21:38:36.846Z,96252.52
2019-01-27T21:41:07.869Z,96258.30
2019-01-27T21:43:39.558Z,96275.99
2019-01-27T21:46:09.716Z,96275.99
2019-01-27T21:48:41.872Z,96282.59
2019-01-27T21:51:11.747Z,96287.75
2019-01-27T21:53:41.597Z,96287.75
2019-01-27T21:56:13.050Z,96286.03
2019-01-27T21:58:43.813Z,96286.03
2019-01-27T22:01:14.368Z,96304.34
2019-01-27T22:03:44.782Z,96304.34
2019-01-27T22:06:14.827Z,96304.39
2019-01-27T22:08:45.068Z,96312.59
2019-01-27T22:11:14.402Z,96312.59
2019-01-27T22:13:43.627Z,96306.94
2019-01-27T22:16:12.812Z,96332.15
2019-01-27T22:18:41.780Z,96337.59
2019-01-27T22:21:11.471Z,96337.59
2019-01-27T22:23:40.875Z,96352.81
2019-01-27T22:26:10.380Z,96369.14
2019-01-27T22:28:39.841Z,96369.14
2019-01-27T22:31:08.102Z,96373.52
2019-01-27T22:33:37.492Z,96393.95
2019-01-27T22:36:06.704Z,96389.45
2019-01-27T22:38:38.895Z,96399.98
2019-01-27T22:41:08.052Z,96401.34
2019-01-27T22:43:38.815Z,96401.34
2019-01-27T22:46:07.868Z,96411.08
2019-01-27T22:48:37.718Z,96404.07
2019-01-27T22:53:50.962Z,96416.42
2019-01-27T22:56:19.768Z,96418.97
2019-01-27T22:58:47.801Z,96418.97
2019-01-27T23:01:16.289Z,96429.91
2019-01-27T23:07:33.503Z,96427.56
2019-01-27T23:10:02.770Z,96427.56
2019-01-27T23:12:32.773Z,96425.78
2019-01-27T23:15:02.733Z,96440.09
2019-01-27T23:17:30.676Z,96440.09
2019-01-27T23:19:58.752Z,96441.42
2019-01-27T23:22:26.896Z,96449.42
2019-01-27T23:24:55.716Z,96447.41
2019-01-27T23:27:24.104Z,96459.84
2019-01-27T23:29:52.682Z,96453.82
2019-01-27T23:32:22.007Z,96457.42
2019-01-27T23:34:51.782Z,96468.91
2019-01-27T23:37:21.071Z,96468.91
2019-01-27T23:39:49.814Z,96479.83
2019-01-27T23:42:17.723Z,96474.89
2019-01-27T23:44:46.132Z,96476.00
2019-01-27T23:47:14.722Z,96478.66
2019-01-27T23:49:44.132Z,96481.88
2019-01-27T23:52:13.782Z,96488.32
2019-01-27T23:54:43.573Z,96489.75
2019-01-27T23:57:13.304Z,96486.07
2019-01-27T23:59:42.825Z,96486.86
